NCAR-RAP Real-Time Weather Data

Output produced by METARs form (26 May 2022  07:20 UTC)
found at http://weather.rap.ucar.edu/surface/
 
KALB 260651Z 15011KT 10SM BKN160 OVC200 15/08 A3027 RMK AO2 SLP251 T01500078
KALB 260551Z 16011KT 10SM FEW170 OVC200 16/09 A3029 RMK AO2 SLP256 T01610089 10222 20161 53004
KALB 260451Z 15011KT 10SM FEW180 OVC210 17/09 A3028 RMK AO2 SLP252 T01670094 402500128
KALB 260351Z 15013G20KT 10SM FEW180 OVC230 18/10 A3028 RMK AO2 SLP254 T01780100
KALB 260251Z 16010KT 10SM FEW120 BKN230 19/09 A3028 RMK AO2 SLP252 T01940089 53005
KALB 260151Z 16008KT 10SM FEW065 FEW120 FEW200 BKN260 20/09 A3027 RMK AO2 SLP251 T02000089
KALB 260051Z 16006KT 10SM FEW065 FEW200 BKN260 21/09 A3026 RMK AO2 SLP247 T02110089
KALB 252351Z 16009KT 10SM FEW065 FEW220 BKN260 22/08 A3026 RMK AO2 SLP246 T02220083 10250 20222 55003
KALB 252251Z COR 15010KT 10SM FEW065 BKN250 23/09 A3026 RMK AO2 SLP246 T02330089
KALB 252151Z 17008KT 10SM FEW065 SCT250 24/08 A3026 RMK AO2 SLP246 T02390083
KALB 252051Z 19008KT 10SM SCT065 BKN250 24/09 A3027 RMK AO2 SLP249 T02440089 58018
KALB 251951Z 19007KT 10SM SCT065 BKN250 24/10 A3029 RMK AO2 SLP256 T02440100
KALB 251851Z VRB03KT 10SM SCT065 BKN250 24/11 A3031 RMK AO2 SLP263 T02440106
KALB 251751Z 17006KT 10SM SCT050 BKN250 24/11 A3032 RMK AO2 SLP267 T02390111 10239 20144 58018
KALB 251651Z 21004KT 10SM SCT045 BKN250 22/11 A3034 RMK AO2 SLP274 T02220111
KALB 251551Z 00000KT 10SM FEW045 SCT250 22/11 A3035 RMK AO2 SLP278 T02170111
KALB 251451Z 19004KT 10SM FEW060 FEW090 BKN250 19/11 A3037 RMK AO2 SLP285 T01940106 50001
KALB 251351Z VRB04KT 10SM FEW060 FEW085 BKN250 18/10 A3038 RMK AO2 SLP287 T01780100
KALB 251251Z 12007KT 10SM FEW080 SCT250 16/09 A3038 RMK AO2 SLP287 T01610094
KALB 251151Z 17006KT 10SM SCT250 14/08 A3037 RMK AO2 SLP284 T01440083 10156 20128 53014
KALB 251051Z 16007KT 10SM SCT250 13/08 A3036 RMK AO2 SLP280 T01330083
KALB 250951Z 16005KT 10SM FEW065 FEW250 13/08 A3034 RMK AO2 SLP274 T01280078
KALB 250851Z 16007KT 10SM FEW060 FEW075 13/08 A3033 RMK AO2 SLP271 T01330078 53008
KALB 250751Z 17008KT 10SM BKN060 BKN075 14/07 A3032 RMK AO2 SLP268 T01390072
KALB 250651Z 16006KT 10SM BKN055 BKN080 15/07 A3031 RMK AO2 SLP265 T01500072
KALB 250551Z 16005KT 10SM OVC055 16/08 A3031 RMK AO2 SLP262 T01560078 10200 20156 51008
KALB 250451Z 15005KT 10SM BKN060 BKN080 BKN250 16/08 A3030 RMK AO2 SLP260 T01610083 402220100
KALB 250351Z 16006KT 10SM SCT080 SCT250 16/09 A3030 RMK AO2 SLP258 T01610089
KALB 250251Z 15008KT 10SM BKN080 18/09 A3028 RMK AO2 SLP254 T01780094 51013
KALB 250151Z 15004KT 10SM BKN075 18/09 A3028 RMK AO2 SLP252 T01780089
KALB 250051Z 17006KT 10SM FEW070 BKN250 18/09 A3026 RMK AO2 SLP247 T01830089
KALB 242351Z COR 17006KT 10SM FEW065 BKN250 19/08 A3024 RMK AO2 SLP241 T01940083 10222 20194 55002
KALB 242251Z 18008KT 10SM BKN065 BKN250 21/08 A3024 RMK AO2 SLP238 T02110083
KALB 242151Z 15004KT 10SM BKN065 BKN250 22/08 A3024 RMK AO2 SLP240 T02170078
KALB 242051Z 14004KT 10SM BKN070 22/07 A3025 RMK AO2 SLP243 T02220072 56008
KALB 241951Z 12005KT 10SM SCT070 BKN250 22/07 A3025 RMK AO2 SLP244 T02220072
KALB 241851Z 21004KT 10SM FEW060 FEW085 BKN250 22/07 A3026 RMK AO2 SLP248 T02170072
KALB 241751Z 18006KT 10SM FEW060 FEW085 SCT250 21/07 A3027 RMK AO2 SLP251 T02060067 10211 20128 58020
KALB 241651Z VRB04KT 10SM FEW060 FEW085 FEW250 20/06 A3030 RMK AO2 SLP259 T02000061
KALB 241551Z 32004KT 10SM FEW055 FEW080 FEW250 19/06 A3033 RMK AO2 SLP269 FU PLUME SW T01890056
KALB 241451Z 00000KT 10SM FEW075 FEW250 17/05 A3034 RMK AO2 SLP273 T01720050 58003
KALB 241351Z 00000KT 10SM BKN075 BKN250 16/04 A3034 RMK AO2 SLP276 T01610044
KALB 241251Z 04004KT 10SM BKN075 14/04 A3035 RMK AO2 SLP278 T01440044
KALB 241151Z 36005KT 10SM BKN080 BKN250 13/06 A3034 RMK AO2 SLP276 T01280056 10128 20100 53014
KALB 241051Z 35005KT 10SM BKN075 BKN250 11/05 A3032 RMK AO2 SLP269 T01110050
KALB 240951Z 36005KT 10SM OVC080 11/05 A3031 RMK AO2 SLP265 T01060050
KALB 240851Z 35004KT 10SM OVC080 11/05 A3030 RMK AO2 SLP262 T01060050 58001
KALB 240751Z 35005KT 10SM SCT075 BKN250 11/04 A3031 RMK AO2 SLP265 T01060044